sensor_id;sensor_type;location;lat;lon;timestamp;P1;durP1;ratioP1;P2;durP2;ratioP2
15254;SDS011;7730;49.610;11.136;2024-02-26T00:00:38;6.57;;;2.88;;
15254;SDS011;7730;49.610;11.136;2024-02-26T00:03:05;6.93;;;2.45;;
15254;SDS011;7730;49.610;11.136;2024-02-26T00:05:32;6.13;;;2.67;;
15254;SDS011;7730;49.610;11.136;2024-02-26T00:08:01;4.32;;;2.30;;
15254;SDS011;7730;49.610;11.136;2024-02-26T00:10:28;6.90;;;2.80;;
15254;SDS011;7730;49.610;11.136;2024-02-26T00:12:55;5.83;;;2.50;;
15254;SDS011;7730;49.610;11.136;2024-02-26T00:15:22;5.90;;;2.60;;
15254;SDS011;7730;49.610;11.136;2024-02-26T00:17:50;6.05;;;2.70;;
15254;SDS011;7730;49.610;11.136;2024-02-26T00:20:17;7.93;;;3.30;;
15254;SDS011;7730;49.610;11.136;2024-02-26T00:22:44;6.05;;;2.83;;
15254;SDS011;7730;49.610;11.136;2024-02-26T00:25:12;5.90;;;2.88;;
15254;SDS011;7730;49.610;11.136;2024-02-26T00:27:39;6.50;;;3.13;;
15254;SDS011;7730;49.610;11.136;2024-02-26T00:30:07;8.45;;;3.20;;
15254;SDS011;7730;49.610;11.136;2024-02-26T00:32:34;7.68;;;3.20;;
15254;SDS011;7730;49.610;11.136;2024-02-26T00:35:01;6.78;;;3.08;;
15254;SDS011;7730;49.610;11.136;2024-02-26T00:37:28;8.75;;;3.05;;
15254;SDS011;7730;49.610;11.136;2024-02-26T00:39:55;7.32;;;2.97;;
15254;SDS011;7730;49.610;11.136;2024-02-26T00:42:23;6.80;;;3.08;;
15254;SDS011;7730;49.610;11.136;2024-02-26T00:44:50;6.93;;;2.88;;
15254;SDS011;7730;49.610;11.136;2024-02-26T00:47:17;7.38;;;2.90;;
15254;SDS011;7730;49.610;11.136;2024-02-26T00:49:44;7.55;;;2.83;;
15254;SDS011;7730;49.610;11.136;2024-02-26T00:52:12;7.80;;;3.20;;
15254;SDS011;7730;49.610;11.136;2024-02-26T00:54:39;7.32;;;3.20;;
15254;SDS011;7730;49.610;11.136;2024-02-26T00:57:06;7.50;;;2.93;;
15254;SDS011;7730;49.610;11.136;2024-02-26T00:59:34;7.57;;;3.08;;
15254;SDS011;7730;49.610;11.136;2024-02-26T01:02:01;6.43;;;2.80;;
15254;SDS011;7730;49.610;11.136;2024-02-26T01:04:30;7.40;;;2.90;;
15254;SDS011;7730;49.610;11.136;2024-02-26T01:06:59;7.50;;;3.05;;
15254;SDS011;7730;49.610;11.136;2024-02-26T01:09:26;7.97;;;3.17;;
15254;SDS011;7730;49.610;11.136;2024-02-26T01:11:53;6.28;;;2.80;;
15254;SDS011;7730;49.610;11.136;2024-02-26T01:14:20;7.50;;;3.08;;
15254;SDS011;7730;49.610;11.136;2024-02-26T01:16:48;8.52;;;3.30;;
15254;SDS011;7730;49.610;11.136;2024-02-26T01:19:15;7.22;;;3.13;;
15254;SDS011;7730;49.610;11.136;2024-02-26T01:21:42;7.27;;;3.03;;
15254;SDS011;7730;49.610;11.136;2024-02-26T01:24:09;6.90;;;3.03;;
15254;SDS011;7730;49.610;11.136;2024-02-26T01:26:36;9.85;;;4.00;;
15254;SDS011;7730;49.610;11.136;2024-02-26T01:29:03;10.98;;;4.90;;
15254;SDS011;7730;49.610;11.136;2024-02-26T01:31:32;9.20;;;4.03;;
15254;SDS011;7730;49.610;11.136;2024-02-26T01:34:00;8.43;;;3.57;;
15254;SDS011;7730;49.610;11.136;2024-02-26T01:36:27;7.72;;;3.50;;
15254;SDS011;7730;49.610;11.136;2024-02-26T01:38:54;9.20;;;3.90;;
15254;SDS011;7730;49.610;11.136;2024-02-26T01:41:21;9.40;;;3.60;;
15254;SDS011;7730;49.610;11.136;2024-02-26T01:43:48;8.30;;;3.38;;
15254;SDS011;7730;49.610;11.136;2024-02-26T01:46:15;7.30;;;3.03;;
15254;SDS011;7730;49.610;11.136;2024-02-26T01:48:43;7.97;;;3.00;;
15254;SDS011;7730;49.610;11.136;2024-02-26T01:51:13;7.47;;;2.90;;
15254;SDS011;7730;49.610;11.136;2024-02-26T01:53:41;6.35;;;3.00;;
15254;SDS011;7730;49.610;11.136;2024-02-26T01:56:08;7.30;;;3.10;;
15254;SDS011;7730;49.610;11.136;2024-02-26T01:58:35;7.90;;;3.15;;
15254;SDS011;7730;49.610;11.136;2024-02-26T02:01:03;6.68;;;2.85;;
15254;SDS011;7730;49.610;11.136;2024-02-26T02:03:30;6.80;;;2.97;;
15254;SDS011;7730;49.610;11.136;2024-02-26T02:05:57;7.00;;;2.83;;
15254;SDS011;7730;49.610;11.136;2024-02-26T02:08:26;7.13;;;2.97;;
15254;SDS011;7730;49.610;11.136;2024-02-26T02:10:54;5.50;;;2.70;;
15254;SDS011;7730;49.610;11.136;2024-02-26T02:13:21;8.13;;;3.10;;
15254;SDS011;7730;49.610;11.136;2024-02-26T02:15:48;8.02;;;3.28;;
15254;SDS011;7730;49.610;11.136;2024-02-26T02:18:15;8.45;;;2.90;;
15254;SDS011;7730;49.610;11.136;2024-02-26T02:20:43;12.60;;;5.80;;
15254;SDS011;7730;49.610;11.136;2024-02-26T02:23:10;9.20;;;3.65;;
15254;SDS011;7730;49.610;11.136;2024-02-26T02:25:37;7.63;;;3.10;;
15254;SDS011;7730;49.610;11.136;2024-02-26T02:28:04;10.23;;;3.38;;
15254;SDS011;7730;49.610;11.136;2024-02-26T02:30:32;7.70;;;3.08;;
15254;SDS011;7730;49.610;11.136;2024-02-26T02:33:01;6.28;;;2.88;;
15254;SDS011;7730;49.610;11.136;2024-02-26T02:35:28;5.88;;;2.67;;
15254;SDS011;7730;49.610;11.136;2024-02-26T02:37:56;6.63;;;2.92;;
15254;SDS011;7730;49.610;11.136;2024-02-26T02:40:23;7.85;;;2.80;;
15254;SDS011;7730;49.610;11.136;2024-02-26T02:42:50;7.38;;;3.20;;
15254;SDS011;7730;49.610;11.136;2024-02-26T02:45:17;5.97;;;2.80;;
15254;SDS011;7730;49.610;11.136;2024-02-26T02:47:44;7.47;;;3.10;;
15254;SDS011;7730;49.610;11.136;2024-02-26T02:50:11;8.38;;;3.10;;
15254;SDS011;7730;49.610;11.136;2024-02-26T02:52:38;7.28;;;2.80;;
15254;SDS011;7730;49.610;11.136;2024-02-26T02:55:07;7.53;;;3.10;;
15254;SDS011;7730;49.610;11.136;2024-02-26T02:57:34;8.20;;;3.28;;
15254;SDS011;7730;49.610;11.136;2024-02-26T03:00:06;7.25;;;3.08;;
15254;SDS011;7730;49.610;11.136;2024-02-26T03:02:33;7.05;;;2.95;;
15254;SDS011;7730;49.610;11.136;2024-02-26T03:05:00;6.95;;;2.80;;
15254;SDS011;7730;49.610;11.136;2024-02-26T03:07:27;7.50;;;3.20;;
15254;SDS011;7730;49.610;11.136;2024-02-26T03:09:55;8.10;;;3.00;;
15254;SDS011;7730;49.610;11.136;2024-02-26T03:12:23;7.25;;;3.10;;
15254;SDS011;7730;49.610;11.136;2024-02-26T03:14:50;7.75;;;3.28;;
15254;SDS011;7730;49.610;11.136;2024-02-26T03:17:19;7.75;;;2.85;;
15254;SDS011;7730;49.610;11.136;2024-02-26T03:19:46;7.07;;;2.97;;
15254;SDS011;7730;49.610;11.136;2024-02-26T03:22:18;8.73;;;3.08;;
15254;SDS011;7730;49.610;11.136;2024-02-26T03:24:45;7.82;;;3.17;;
15254;SDS011;7730;49.610;11.136;2024-02-26T03:27:12;7.53;;;3.30;;
15254;SDS011;7730;49.610;11.136;2024-02-26T03:29:40;6.43;;;3.00;;
15254;SDS011;7730;49.610;11.136;2024-02-26T03:32:07;8.23;;;3.33;;
15254;SDS011;7730;49.610;11.136;2024-02-26T03:34:34;6.63;;;2.95;;
15254;SDS011;7730;49.610;11.136;2024-02-26T03:37:04;6.00;;;2.80;;
15254;SDS011;7730;49.610;11.136;2024-02-26T03:39:31;6.50;;;3.03;;
15254;SDS011;7730;49.610;11.136;2024-02-26T03:41:58;6.43;;;2.90;;
15254;SDS011;7730;49.610;11.136;2024-02-26T03:44:24;6.80;;;2.70;;
15254;SDS011;7730;49.610;11.136;2024-02-26T03:46:52;6.93;;;2.70;;
15254;SDS011;7730;49.610;11.136;2024-02-26T03:49:20;5.83;;;2.87;;
15254;SDS011;7730;49.610;11.136;2024-02-26T03:51:47;5.80;;;2.63;;
15254;SDS011;7730;49.610;11.136;2024-02-26T03:54:15;7.47;;;2.70;;
15254;SDS011;7730;49.610;11.136;2024-02-26T03:56:42;7.10;;;2.80;;
15254;SDS011;7730;49.610;11.136;2024-02-26T03:59:09;6.68;;;2.80;;
15254;SDS011;7730;49.610;11.136;2024-02-26T04:01:36;5.75;;;2.80;;
15254;SDS011;7730;49.610;11.136;2024-02-26T04:04:04;6.25;;;2.75;;
15254;SDS011;7730;49.610;11.136;2024-02-26T04:06:31;6.87;;;2.80;;
15254;SDS011;7730;49.610;11.136;2024-02-26T04:08:58;6.28;;;2.63;;
15254;SDS011;7730;49.610;11.136;2024-02-26T04:11:27;7.57;;;3.00;;
15254;SDS011;7730;49.610;11.136;2024-02-26T04:13:54;6.40;;;2.85;;
15254;SDS011;7730;49.610;11.136;2024-02-26T04:16:21;5.75;;;2.65;;
15254;SDS011;7730;49.610;11.136;2024-02-26T04:18:48;5.65;;;2.67;;
15254;SDS011;7730;49.610;11.136;2024-02-26T04:21:17;6.07;;;2.60;;
15254;SDS011;7730;49.610;11.136;2024-02-26T04:23:44;4.28;;;2.25;;
15254;SDS011;7730;49.610;11.136;2024-02-26T04:26:11;7.07;;;2.60;;
15254;SDS011;7730;49.610;11.136;2024-02-26T04:28:38;6.35;;;2.63;;
15254;SDS011;7730;49.610;11.136;2024-02-26T04:31:05;5.55;;;2.50;;
15254;SDS011;7730;49.610;11.136;2024-02-26T04:33:33;5.55;;;2.40;;
15254;SDS011;7730;49.610;11.136;2024-02-26T04:36:00;6.13;;;2.70;;
15254;SDS011;7730;49.610;11.136;2024-02-26T04:38:30;6.72;;;2.83;;
15254;SDS011;7730;49.610;11.136;2024-02-26T04:40:57;6.72;;;2.70;;
15254;SDS011;7730;49.610;11.136;2024-02-26T04:43:24;6.57;;;2.70;;
15254;SDS011;7730;49.610;11.136;2024-02-26T04:45:51;7.88;;;2.85;;
15254;SDS011;7730;49.610;11.136;2024-02-26T04:48:18;5.43;;;2.50;;
15254;SDS011;7730;49.610;11.136;2024-02-26T04:50:45;5.30;;;2.70;;
15254;SDS011;7730;49.610;11.136;2024-02-26T04:53:12;5.38;;;2.65;;
15254;SDS011;7730;49.610;11.136;2024-02-26T04:55:40;9.32;;;3.72;;
15254;SDS011;7730;49.610;11.136;2024-02-26T04:58:07;15.13;;;6.23;;
15254;SDS011;7730;49.610;11.136;2024-02-26T05:00:35;6.18;;;2.92;;
15254;SDS011;7730;49.610;11.136;2024-02-26T05:03:02;5.95;;;2.70;;
15254;SDS011;7730;49.610;11.136;2024-02-26T05:05:29;5.63;;;2.70;;
15254;SDS011;7730;49.610;11.136;2024-02-26T05:07:56;6.80;;;2.90;;
15254;SDS011;7730;49.610;11.136;2024-02-26T05:10:23;6.38;;;2.92;;
15254;SDS011;7730;49.610;11.136;2024-02-26T05:12:52;5.68;;;2.70;;
15254;SDS011;7730;49.610;11.136;2024-02-26T05:15:19;5.93;;;2.88;;
15254;SDS011;7730;49.610;11.136;2024-02-26T05:17:46;6.35;;;2.75;;
15254;SDS011;7730;49.610;11.136;2024-02-26T05:20:13;7.38;;;2.80;;
15254;SDS011;7730;49.610;11.136;2024-02-26T05:22:40;5.47;;;2.70;;
15254;SDS011;7730;49.610;11.136;2024-02-26T05:25:07;4.93;;;2.67;;
15254;SDS011;7730;49.610;11.136;2024-02-26T05:27:34;6.47;;;2.90;;
15254;SDS011;7730;49.610;11.136;2024-02-26T05:30:03;6.95;;;3.13;;
15254;SDS011;7730;49.610;11.136;2024-02-26T05:32:30;6.18;;;2.78;;
15254;SDS011;7730;49.610;11.136;2024-02-26T05:34:57;7.37;;;2.90;;
15254;SDS011;7730;49.610;11.136;2024-02-26T05:37:24;6.00;;;2.90;;
15254;SDS011;7730;49.610;11.136;2024-02-26T05:39:51;5.57;;;2.70;;
15254;SDS011;7730;49.610;11.136;2024-02-26T05:42:18;6.38;;;2.95;;
15254;SDS011;7730;49.610;11.136;2024-02-26T05:44:45;7.35;;;2.80;;
15254;SDS011;7730;49.610;11.136;2024-02-26T05:47:14;5.78;;;2.70;;
15254;SDS011;7730;49.610;11.136;2024-02-26T05:49:42;6.57;;;2.88;;
15254;SDS011;7730;49.610;11.136;2024-02-26T05:52:09;6.07;;;2.95;;
15254;SDS011;7730;49.610;11.136;2024-02-26T05:54:36;6.85;;;2.83;;
15254;SDS011;7730;49.610;11.136;2024-02-26T05:57:03;5.97;;;2.90;;
15254;SDS011;7730;49.610;11.136;2024-02-26T05:59:30;7.75;;;3.15;;
15254;SDS011;7730;49.610;11.136;2024-02-26T06:01:57;7.13;;;3.05;;
15254;SDS011;7730;49.610;11.136;2024-02-26T06:04:25;7.90;;;3.25;;
15254;SDS011;7730;49.610;11.136;2024-02-26T06:06:52;6.47;;;2.90;;
15254;SDS011;7730;49.610;11.136;2024-02-26T06:09:19;6.47;;;3.10;;
15254;SDS011;7730;49.610;11.136;2024-02-26T06:11:46;7.47;;;3.15;;
15254;SDS011;7730;49.610;11.136;2024-02-26T06:14:13;6.43;;;3.00;;
15254;SDS011;7730;49.610;11.136;2024-02-26T06:16:43;13.23;;;3.50;;
15254;SDS011;7730;49.610;11.136;2024-02-26T06:19:10;7.55;;;3.05;;
15254;SDS011;7730;49.610;11.136;2024-02-26T06:21:38;6.83;;;3.20;;
15254;SDS011;7730;49.610;11.136;2024-02-26T06:24:05;8.40;;;3.50;;
15254;SDS011;7730;49.610;11.136;2024-02-26T06:26:32;8.25;;;3.42;;
15254;SDS011;7730;49.610;11.136;2024-02-26T06:28:59;8.00;;;3.45;;
15254;SDS011;7730;49.610;11.136;2024-02-26T06:31:26;8.33;;;3.40;;
15254;SDS011;7730;49.610;11.136;2024-02-26T06:33:54;10.07;;;3.60;;
15254;SDS011;7730;49.610;11.136;2024-02-26T06:36:21;9.02;;;3.50;;
15254;SDS011;7730;49.610;11.136;2024-02-26T06:38:49;7.43;;;3.50;;
15254;SDS011;7730;49.610;11.136;2024-02-26T06:41:18;8.48;;;3.75;;
15254;SDS011;7730;49.610;11.136;2024-02-26T06:43:46;7.63;;;3.40;;
15254;SDS011;7730;49.610;11.136;2024-02-26T06:46:13;7.47;;;3.38;;
15254;SDS011;7730;49.610;11.136;2024-02-26T06:48:40;8.40;;;3.50;;
15254;SDS011;7730;49.610;11.136;2024-02-26T06:51:07;12.93;;;5.07;;
15254;SDS011;7730;49.610;11.136;2024-02-26T06:53:34;16.73;;;7.05;;
15254;SDS011;7730;49.610;11.136;2024-02-26T06:56:03;28.50;;;14.48;;
15254;SDS011;7730;49.610;11.136;2024-02-26T06:58:30;20.13;;;9.00;;
15254;SDS011;7730;49.610;11.136;2024-02-26T07:00:57;8.38;;;3.63;;
15254;SDS011;7730;49.610;11.136;2024-02-26T07:03:24;7.95;;;3.38;;
15254;SDS011;7730;49.610;11.136;2024-02-26T07:05:51;7.95;;;3.08;;
15254;SDS011;7730;49.610;11.136;2024-02-26T07:08:18;8.07;;;3.60;;
15254;SDS011;7730;49.610;11.136;2024-02-26T07:10:46;8.73;;;3.55;;
15254;SDS011;7730;49.610;11.136;2024-02-26T07:13:14;9.97;;;3.87;;
15254;SDS011;7730;49.610;11.136;2024-02-26T07:15:41;8.25;;;3.28;;
15254;SDS011;7730;49.610;11.136;2024-02-26T07:18:08;7.82;;;3.45;;
15254;SDS011;7730;49.610;11.136;2024-02-26T07:20:35;8.73;;;3.53;;
15254;SDS011;7730;49.610;11.136;2024-02-26T07:23:02;6.80;;;3.05;;
15254;SDS011;7730;49.610;11.136;2024-02-26T07:25:29;7.53;;;3.30;;
15254;SDS011;7730;49.610;11.136;2024-02-26T07:27:56;7.70;;;3.70;;
15254;SDS011;7730;49.610;11.136;2024-02-26T07:30:25;8.43;;;3.58;;
15254;SDS011;7730;49.610;11.136;2024-02-26T07:32:52;7.82;;;3.47;;
15254;SDS011;7730;49.610;11.136;2024-02-26T07:35:19;8.15;;;3.35;;
15254;SDS011;7730;49.610;11.136;2024-02-26T07:37:47;7.03;;;3.33;;
15254;SDS011;7730;49.610;11.136;2024-02-26T07:40:15;6.40;;;3.20;;
15254;SDS011;7730;49.610;11.136;2024-02-26T07:42:42;7.03;;;3.30;;
15254;SDS011;7730;49.610;11.136;2024-02-26T07:45:09;8.03;;;3.47;;
15254;SDS011;7730;49.610;11.136;2024-02-26T07:47:38;7.03;;;3.17;;
15254;SDS011;7730;49.610;11.136;2024-02-26T07:50:07;6.73;;;3.10;;
15254;SDS011;7730;49.610;11.136;2024-02-26T07:52:34;7.53;;;3.17;;
15254;SDS011;7730;49.610;11.136;2024-02-26T07:55:01;7.20;;;3.30;;
15254;SDS011;7730;49.610;11.136;2024-02-26T07:57:28;7.32;;;3.33;;
15254;SDS011;7730;49.610;11.136;2024-02-26T07:59:55;8.25;;;3.60;;
15254;SDS011;7730;49.610;11.136;2024-02-26T08:02:22;9.35;;;3.60;;
15254;SDS011;7730;49.610;11.136;2024-02-26T08:04:51;7.97;;;3.40;;
15254;SDS011;7730;49.610;11.136;2024-02-26T08:07:18;9.45;;;3.80;;
15254;SDS011;7730;49.610;11.136;2024-02-26T08:09:45;8.43;;;3.60;;
15254;SDS011;7730;49.610;11.136;2024-02-26T08:12:12;8.85;;;3.50;;
15254;SDS011;7730;49.610;11.136;2024-02-26T08:14:39;8.65;;;3.63;;
15254;SDS011;7730;49.610;11.136;2024-02-26T08:17:07;9.10;;;3.70;;
15254;SDS011;7730;49.610;11.136;2024-02-26T08:19:34;7.20;;;3.08;;
15254;SDS011;7730;49.610;11.136;2024-02-26T08:22:03;7.57;;;3.35;;
15254;SDS011;7730;49.610;11.136;2024-02-26T08:24:30;7.55;;;3.25;;
15254;SDS011;7730;49.610;11.136;2024-02-26T08:26:57;7.55;;;3.38;;
15254;SDS011;7730;49.610;11.136;2024-02-26T08:29:24;8.57;;;3.35;;
15254;SDS011;7730;49.610;11.136;2024-02-26T08:31:51;9.60;;;3.65;;
15254;SDS011;7730;49.610;11.136;2024-02-26T08:34:18;5.75;;;2.30;;
15254;SDS011;7730;49.610;11.136;2024-02-26T08:36:45;8.15;;;3.40;;
15254;SDS011;7730;49.610;11.136;2024-02-26T08:39:15;9.10;;;3.65;;
15254;SDS011;7730;49.610;11.136;2024-02-26T08:41:42;8.40;;;3.50;;
15254;SDS011;7730;49.610;11.136;2024-02-26T08:44:09;8.30;;;3.55;;
15254;SDS011;7730;49.610;11.136;2024-02-26T08:46:36;6.78;;;3.17;;
15254;SDS011;7730;49.610;11.136;2024-02-26T08:49:03;8.48;;;3.50;;
15254;SDS011;7730;49.610;11.136;2024-02-26T08:51:30;7.30;;;3.40;;
15254;SDS011;7730;49.610;11.136;2024-02-26T08:53:57;8.57;;;3.70;;
15254;SDS011;7730;49.610;11.136;2024-02-26T08:56:26;8.30;;;3.45;;
15254;SDS011;7730;49.610;11.136;2024-02-26T08:58:53;8.38;;;3.45;;
15254;SDS011;7730;49.610;11.136;2024-02-26T09:01:21;8.32;;;3.60;;
15254;SDS011;7730;49.610;11.136;2024-02-26T09:03:49;9.45;;;4.20;;
15254;SDS011;7730;49.610;11.136;2024-02-26T09:06:16;8.15;;;3.50;;
15254;SDS011;7730;49.610;11.136;2024-02-26T09:08:43;7.47;;;3.40;;
15254;SDS011;7730;49.610;11.136;2024-02-26T09:11:10;9.10;;;3.72;;
15254;SDS011;7730;49.610;11.136;2024-02-26T09:13:38;9.07;;;3.58;;
15254;SDS011;7730;49.610;11.136;2024-02-26T09:16:05;8.07;;;3.75;;
15254;SDS011;7730;49.610;11.136;2024-02-26T09:18:32;8.30;;;3.53;;
15254;SDS011;7730;49.610;11.136;2024-02-26T09:20:59;8.77;;;3.60;;
15254;SDS011;7730;49.610;11.136;2024-02-26T09:23:27;9.43;;;3.97;;
15254;SDS011;7730;49.610;11.136;2024-02-26T09:25:54;8.43;;;3.60;;
15254;SDS011;7730;49.610;11.136;2024-02-26T09:28:21;8.02;;;3.50;;
15254;SDS011;7730;49.610;11.136;2024-02-26T09:30:49;9.27;;;3.83;;
15254;SDS011;7730;49.610;11.136;2024-02-26T09:33:16;7.97;;;3.40;;
15254;SDS011;7730;49.610;11.136;2024-02-26T09:35:43;9.98;;;3.40;;
15254;SDS011;7730;49.610;11.136;2024-02-26T09:38:10;7.43;;;3.25;;
15254;SDS011;7730;49.610;11.136;2024-02-26T09:40:39;7.47;;;3.40;;
15254;SDS011;7730;49.610;11.136;2024-02-26T09:43:06;8.55;;;3.55;;
15254;SDS011;7730;49.610;11.136;2024-02-26T09:45:34;7.20;;;3.40;;
15254;SDS011;7730;49.610;11.136;2024-02-26T09:48:03;7.05;;;3.22;;
15254;SDS011;7730;49.610;11.136;2024-02-26T09:50:31;7.35;;;3.05;;
15254;SDS011;7730;49.610;11.136;2024-02-26T09:52:58;8.65;;;3.42;;
15254;SDS011;7730;49.610;11.136;2024-02-26T09:55:27;7.05;;;3.30;;
15254;SDS011;7730;49.610;11.136;2024-02-26T09:57:54;8.13;;;3.50;;
15254;SDS011;7730;49.610;11.136;2024-02-26T10:00:22;8.30;;;3.17;;
15254;SDS011;7730;49.610;11.136;2024-02-26T10:02:49;7.35;;;3.50;;
15254;SDS011;7730;49.610;11.136;2024-02-26T10:05:19;7.88;;;3.40;;
15254;SDS011;7730;49.610;11.136;2024-02-26T10:07:47;7.65;;;3.20;;
15254;SDS011;7730;49.610;11.136;2024-02-26T10:10:14;6.75;;;3.03;;
15254;SDS011;7730;49.610;11.136;2024-02-26T10:12:41;6.03;;;3.20;;
15254;SDS011;7730;49.610;11.136;2024-02-26T10:15:08;6.70;;;2.83;;
15254;SDS011;7730;49.610;11.136;2024-02-26T10:17:35;7.95;;;3.05;;
15254;SDS011;7730;49.610;11.136;2024-02-26T10:20:11;6.93;;;3.10;;
15254;SDS011;7730;49.610;11.136;2024-02-26T10:22:39;6.45;;;3.03;;
15254;SDS011;7730;49.610;11.136;2024-02-26T10:25:06;6.78;;;2.85;;
15254;SDS011;7730;49.610;11.136;2024-02-26T10:27:33;6.25;;;3.00;;
15254;SDS011;7730;49.610;11.136;2024-02-26T10:30:02;6.18;;;2.78;;
15254;SDS011;7730;49.610;11.136;2024-02-26T10:32:29;6.55;;;2.53;;
15254;SDS011;7730;49.610;11.136;2024-02-26T10:34:57;9.27;;;2.60;;
15254;SDS011;7730;49.610;11.136;2024-02-26T10:37:24;6.63;;;2.97;;
15254;SDS011;7730;49.610;11.136;2024-02-26T10:39:52;6.20;;;2.97;;
15254;SDS011;7730;49.610;11.136;2024-02-26T10:42:19;6.43;;;2.92;;
15254;SDS011;7730;49.610;11.136;2024-02-26T10:44:46;7.20;;;2.80;;
15254;SDS011;7730;49.610;11.136;2024-02-26T10:47:14;6.55;;;3.00;;
15254;SDS011;7730;49.610;11.136;2024-02-26T10:49:45;6.82;;;2.78;;
15254;SDS011;7730;49.610;11.136;2024-02-26T10:52:12;7.10;;;2.80;;
15254;SDS011;7730;49.610;11.136;2024-02-26T10:54:39;6.82;;;2.97;;
15254;SDS011;7730;49.610;11.136;2024-02-26T10:57:10;7.35;;;2.90;;
15254;SDS011;7730;49.610;11.136;2024-02-26T10:59:38;7.03;;;3.03;;
15254;SDS011;7730;49.610;11.136;2024-02-26T11:02:06;7.97;;;3.33;;
15254;SDS011;7730;49.610;11.136;2024-02-26T11:04:34;6.85;;;2.85;;
15254;SDS011;7730;49.610;11.136;2024-02-26T11:07:01;7.72;;;2.92;;
15254;SDS011;7730;49.610;11.136;2024-02-26T11:09:29;6.43;;;2.95;;
15254;SDS011;7730;49.610;11.136;2024-02-26T11:11:57;6.88;;;3.13;;
15254;SDS011;7730;49.610;11.136;2024-02-26T11:14:25;8.32;;;3.20;;
15254;SDS011;7730;49.610;11.136;2024-02-26T11:16:52;8.80;;;3.40;;
15254;SDS011;7730;49.610;11.136;2024-02-26T11:19:20;7.65;;;3.00;;
15254;SDS011;7730;49.610;11.136;2024-02-26T11:21:48;9.23;;;3.40;;
15254;SDS011;7730;49.610;11.136;2024-02-26T11:24:15;7.18;;;3.20;;
15254;SDS011;7730;49.610;11.136;2024-02-26T11:26:45;6.65;;;2.85;;
15254;SDS011;7730;49.610;11.136;2024-02-26T11:29:16;8.30;;;3.33;;
15254;SDS011;7730;49.610;11.136;2024-02-26T11:31:45;8.13;;;3.33;;
15254;SDS011;7730;49.610;11.136;2024-02-26T11:34:12;9.13;;;3.47;;
15254;SDS011;7730;49.610;11.136;2024-02-26T11:36:39;7.88;;;3.00;;
15254;SDS011;7730;49.610;11.136;2024-02-26T11:39:07;9.25;;;3.40;;
15254;SDS011;7730;49.610;11.136;2024-02-26T11:41:35;7.22;;;3.22;;
15254;SDS011;7730;49.610;11.136;2024-02-26T11:44:03;7.15;;;3.15;;
15254;SDS011;7730;49.610;11.136;2024-02-26T11:46:32;7.00;;;2.90;;
15254;SDS011;7730;49.610;11.136;2024-02-26T11:49:01;9.38;;;3.08;;
15254;SDS011;7730;49.610;11.136;2024-02-26T11:51:32;7.88;;;3.10;;
15254;SDS011;7730;49.610;11.136;2024-02-26T11:54:00;8.93;;;3.22;;
15254;SDS011;7730;49.610;11.136;2024-02-26T11:56:27;9.38;;;3.17;;
15254;SDS011;7730;49.610;11.136;2024-02-26T11:58:58;7.85;;;2.90;;
15254;SDS011;7730;49.610;11.136;2024-02-26T12:01:38;6.50;;;2.70;;
15254;SDS011;7730;49.610;11.136;2024-02-26T12:04:06;9.70;;;3.40;;
15254;SDS011;7730;49.610;11.136;2024-02-26T12:06:44;5.85;;;2.72;;
15254;SDS011;7730;49.610;11.136;2024-02-26T12:09:11;7.88;;;3.10;;
15254;SDS011;7730;49.610;11.136;2024-02-26T12:11:39;7.00;;;3.10;;
15254;SDS011;7730;49.610;11.136;2024-02-26T12:14:07;9.00;;;2.70;;
15254;SDS011;7730;49.610;11.136;2024-02-26T12:16:34;8.05;;;3.22;;
15254;SDS011;7730;49.610;11.136;2024-02-26T12:19:02;7.53;;;2.92;;
15254;SDS011;7730;49.610;11.136;2024-02-26T12:21:31;6.80;;;2.70;;
15254;SDS011;7730;49.610;11.136;2024-02-26T12:24:06;7.70;;;2.83;;
15254;SDS011;7730;49.610;11.136;2024-02-26T12:26:33;6.18;;;2.50;;
15254;SDS011;7730;49.610;11.136;2024-02-26T12:29:00;5.55;;;2.50;;
15254;SDS011;7730;49.610;11.136;2024-02-26T12:31:27;5.68;;;2.60;;
15254;SDS011;7730;49.610;11.136;2024-02-26T12:33:56;5.63;;;2.55;;
15254;SDS011;7730;49.610;11.136;2024-02-26T12:36:23;6.30;;;2.70;;
15254;SDS011;7730;49.610;11.136;2024-02-26T12:38:51;8.30;;;2.85;;
15254;SDS011;7730;49.610;11.136;2024-02-26T12:41:18;6.38;;;2.45;;
15254;SDS011;7730;49.610;11.136;2024-02-26T12:43:46;5.70;;;2.47;;
15254;SDS011;7730;49.610;11.136;2024-02-26T12:46:13;7.18;;;2.95;;
15254;SDS011;7730;49.610;11.136;2024-02-26T12:48:41;6.43;;;2.58;;
15254;SDS011;7730;49.610;11.136;2024-02-26T12:51:09;8.32;;;2.60;;
15254;SDS011;7730;49.610;11.136;2024-02-26T12:53:36;7.70;;;2.58;;
15254;SDS011;7730;49.610;11.136;2024-02-26T12:56:06;5.88;;;2.55;;
15254;SDS011;7730;49.610;11.136;2024-02-26T12:58:34;5.85;;;2.80;;
15254;SDS011;7730;49.610;11.136;2024-02-26T13:01:03;6.38;;;2.50;;
15254;SDS011;7730;49.610;11.136;2024-02-26T13:03:30;4.05;;;2.33;;
15254;SDS011;7730;49.610;11.136;2024-02-26T13:05:57;6.88;;;2.50;;
15254;SDS011;7730;49.610;11.136;2024-02-26T13:08:25;7.13;;;2.50;;
15254;SDS011;7730;49.610;11.136;2024-02-26T13:10:52;4.97;;;2.33;;
15254;SDS011;7730;49.610;11.136;2024-02-26T13:13:20;4.55;;;2.42;;
15254;SDS011;7730;49.610;11.136;2024-02-26T13:15:47;6.03;;;2.30;;
15254;SDS011;7730;49.610;11.136;2024-02-26T13:18:14;6.32;;;2.30;;
15254;SDS011;7730;49.610;11.136;2024-02-26T13:20:41;4.82;;;2.28;;
15254;SDS011;7730;49.610;11.136;2024-02-26T13:23:10;5.50;;;2.50;;
15254;SDS011;7730;49.610;11.136;2024-02-26T13:25:37;3.90;;;2.10;;
15254;SDS011;7730;49.610;11.136;2024-02-26T13:28:06;4.47;;;2.33;;
15254;SDS011;7730;49.610;11.136;2024-02-26T13:30:35;5.05;;;2.30;;
15254;SDS011;7730;49.610;11.136;2024-02-26T13:33:09;4.80;;;2.20;;
15254;SDS011;7730;49.610;11.136;2024-02-26T13:35:36;4.25;;;2.10;;
15254;SDS011;7730;49.610;11.136;2024-02-26T13:38:04;5.60;;;1.90;;
15254;SDS011;7730;49.610;11.136;2024-02-26T13:40:31;4.38;;;2.03;;
15254;SDS011;7730;49.610;11.136;2024-02-26T13:42:58;5.00;;;2.22;;
15254;SDS011;7730;49.610;11.136;2024-02-26T13:45:25;4.55;;;2.22;;
15254;SDS011;7730;49.610;11.136;2024-02-26T13:47:54;6.50;;;2.03;;
15254;SDS011;7730;49.610;11.136;2024-02-26T13:50:28;5.18;;;2.13;;
15254;SDS011;7730;49.610;11.136;2024-02-26T13:52:55;5.65;;;2.38;;
15254;SDS011;7730;49.610;11.136;2024-02-26T13:55:23;5.68;;;2.35;;
15254;SDS011;7730;49.610;11.136;2024-02-26T13:57:51;3.40;;;1.77;;
15254;SDS011;7730;49.610;11.136;2024-02-26T14:00:18;5.03;;;2.10;;
15254;SDS011;7730;49.610;11.136;2024-02-26T14:02:46;4.05;;;2.15;;
15254;SDS011;7730;49.610;11.136;2024-02-26T14:05:14;4.53;;;2.10;;
15254;SDS011;7730;49.610;11.136;2024-02-26T14:07:41;3.92;;;1.90;;
15254;SDS011;7730;49.610;11.136;2024-02-26T14:10:08;5.30;;;2.10;;
15254;SDS011;7730;49.610;11.136;2024-02-26T14:12:36;5.97;;;2.20;;
15254;SDS011;7730;49.610;11.136;2024-02-26T14:15:04;5.00;;;2.10;;
15254;SDS011;7730;49.610;11.136;2024-02-26T14:17:32;2.92;;;1.80;;
15254;SDS011;7730;49.610;11.136;2024-02-26T14:19:59;3.05;;;1.83;;
15254;SDS011;7730;49.610;11.136;2024-02-26T14:22:27;2.70;;;1.80;;
15254;SDS011;7730;49.610;11.136;2024-02-26T14:24:55;3.22;;;1.80;;
15254;SDS011;7730;49.610;11.136;2024-02-26T14:27:22;3.55;;;1.92;;
15254;SDS011;7730;49.610;11.136;2024-02-26T14:29:50;4.85;;;2.13;;
15254;SDS011;7730;49.610;11.136;2024-02-26T14:32:18;3.15;;;2.00;;
15254;SDS011;7730;49.610;11.136;2024-02-26T14:34:45;3.83;;;2.03;;
15254;SDS011;7730;49.610;11.136;2024-02-26T14:37:12;4.28;;;1.92;;
15254;SDS011;7730;49.610;11.136;2024-02-26T14:39:40;3.60;;;2.13;;
15254;SDS011;7730;49.610;11.136;2024-02-26T14:42:07;3.88;;;2.00;;
15254;SDS011;7730;49.610;11.136;2024-02-26T14:44:34;3.10;;;2.00;;
15254;SDS011;7730;49.610;11.136;2024-02-26T14:47:01;3.38;;;2.00;;
15254;SDS011;7730;49.610;11.136;2024-02-26T14:49:28;4.03;;;2.20;;